createdAt,value
2023-04-23T00:02:58.014Z,99348.50
2023-04-23T00:13:01.432Z,99350.78
2023-04-23T00:23:03.996Z,99341.75
2023-04-23T00:33:06.515Z,99334.94
2023-04-23T00:43:09.893Z,99325.16
2023-04-23T00:53:12.651Z,99324.19
2023-04-23T01:03:18.678Z,99315.16
2023-04-23T01:13:22.548Z,99310.44
2023-04-23T01:23:27.115Z,99307.69
2023-04-23T01:33:30.656Z,99308.66
2023-04-23T01:43:33.923Z,99319.03
2023-04-23T01:53:36.375Z,99310.50
2023-04-23T02:03:39.031Z,99314.56
2023-04-23T02:13:41.568Z,99317.97
2023-04-23T02:23:44.453Z,99306.34
2023-04-23T02:33:47.221Z,99296.84
2023-04-23T02:43:50.808Z,99312.66
2023-04-23T02:53:53.353Z,99307.91
2023-04-23T03:03:56.269Z,99297.88
2023-04-23T03:13:58.797Z,99301.66
2023-04-23T03:24:01.650Z,99289.91
2023-04-23T03:34:04.247Z,99298.00
2023-04-23T03:44:10.535Z,99289.19
2023-04-23T03:54:19.531Z,99293.97
2023-04-23T04:04:51.956Z,99298.84
2023-04-23T04:14:54.673Z,99285.88
2023-04-23T04:24:57.604Z,99299.50
2023-04-23T04:35:04.048Z,99308.22
2023-04-23T04:45:08.815Z,99319.72
2023-04-23T04:55:11.845Z,99309.34
2023-04-23T05:05:14.520Z,99316.25
2023-04-23T05:15:17.396Z,99322.47
2023-04-23T05:25:19.911Z,99321.28
2023-04-23T05:35:22.657Z,99321.97
2023-04-23T05:45:25.336Z,99344.59
2023-04-23T05:55:28.028Z,99338.59
2023-04-23T06:05:30.585Z,99339.28
2023-04-23T06:15:33.249Z,99340.03
2023-04-23T06:25:35.680Z,99337.84
2023-04-23T06:35:38.261Z,99340.47
2023-04-23T06:45:41.219Z,99322.53
2023-04-23T06:55:44.215Z,99317.31
2023-04-23T07:05:46.738Z,99304.41
2023-04-23T07:15:49.399Z,99303.22
2023-04-23T07:25:52.450Z,99301.81
2023-04-23T07:35:55.177Z,99303.06
2023-04-23T07:45:57.999Z,99301.91
2023-04-23T07:56:01.079Z,99291.44
2023-04-23T08:06:04.854Z,99292.63
2023-04-23T08:16:07.491Z,99290.97
2023-04-23T08:26:10.403Z,99289.97
2023-04-23T08:36:15.294Z,99282.69
2023-04-23T08:46:19.408Z,99269.75
2023-04-23T08:56:23.129Z,99277.78
2023-04-23T09:06:26.489Z,99273.75
2023-04-23T09:16:29.126Z,99253.09
2023-04-23T09:26:31.842Z,99258.19
2023-04-23T09:36:36.374Z,99237.34
2023-04-23T09:46:42.177Z,99238.44
2023-04-23T09:56:49.077Z,99235.38
2023-04-23T10:07:17.243Z,99217.00
2023-04-23T10:17:21.267Z,99204.31
2023-04-23T10:27:44.232Z,99202.38
2023-04-23T10:37:51.180Z,99191.66
2023-04-23T10:47:57.666Z,99172.31
2023-04-23T10:58:08.528Z,99178.59
2023-04-23T11:08:19.303Z,99170.25
2023-04-23T11:18:23.968Z,99178.66
2023-04-23T11:28:29.928Z,99165.38
2023-04-23T11:38:35.506Z,99157.72
2023-04-23T11:48:38.032Z,99152.91
2023-04-23T11:58:40.449Z,99134.81
2023-04-23T12:08:46.388Z,99117.72
2023-04-23T12:18:53.905Z,99112.19
2023-04-23T12:28:59.998Z,99105.06
2023-04-23T12:39:22.286Z,99095.06
2023-04-23T12:49:27.268Z,99086.25
2023-04-23T12:59:31.326Z,99085.25
2023-04-23T13:09:36.124Z,99071.47
2023-04-23T13:19:39.871Z,99070.53
2023-04-23T13:29:42.819Z,99040.91
2023-04-23T13:39:46.070Z,99031.44
2023-04-23T13:49:48.700Z,99016.56
2023-04-23T13:59:51.489Z,98991.69
2023-04-23T14:09:54.036Z,98996.69
2023-04-23T14:19:56.552Z,98990.13
2023-04-23T14:30:05.403Z,98969.47
2023-04-23T14:40:08.952Z,98981.56
2023-04-23T14:50:11.685Z,98968.50
2023-04-23T15:00:15.512Z,98965.53
2023-04-23T15:10:18.958Z,98952.72
2023-04-23T15:20:22.512Z,98954.41
2023-04-23T15:30:26.271Z,98945.75
2023-04-23T15:40:31.772Z,98949.88
2023-04-23T15:50:34.734Z,98934.13
2023-04-23T16:00:37.245Z,98936.16
2023-04-23T16:10:40.024Z,98930.44
2023-04-23T16:20:43.119Z,98918.28
2023-04-23T16:30:45.886Z,98922.31
2023-04-23T16:40:48.564Z,98916.13
2023-04-23T16:50:51.309Z,98906.66
2023-04-23T17:00:53.777Z,98900.00
2023-04-23T17:10:57.258Z,98878.53
2023-04-23T17:21:00.284Z,98881.47
2023-04-23T17:31:03.585Z,98869.72
2023-04-23T17:41:06.591Z,98877.44
2023-04-23T17:51:09.436Z,98873.13
2023-04-23T18:01:12.667Z,98879.38
2023-04-23T18:11:15.878Z,98883.50
2023-04-23T18:21:18.580Z,98889.22
2023-04-23T18:31:21.675Z,98895.56
2023-04-23T18:41:24.815Z,98897.91
2023-04-23T18:51:37.801Z,98899.38
2023-04-23T19:01:42.299Z,98894.09
2023-04-23T19:11:46.207Z,98882.81
2023-04-23T19:21:49.030Z,98880.59
2023-04-23T19:31:51.984Z,98859.75
2023-04-23T19:41:54.568Z,98868.78
2023-04-23T19:51:58.804Z,98858.66
2023-04-23T20:02:02.481Z,98861.31
2023-04-23T20:12:05.169Z,98880.03
2023-04-23T20:22:07.744Z,98894.25
2023-04-23T20:32:10.397Z,98903.97
2023-04-23T20:42:13.121Z,98888.41
2023-04-23T20:52:15.691Z,98881.94
2023-04-23T21:02:18.394Z,98853.19
2023-04-23T21:12:21.004Z,98842.81
2023-04-23T21:22:23.941Z,98825.94
2023-04-23T21:32:26.455Z,98821.16
2023-04-23T21:42:29.007Z,98820.34
2023-04-23T21:52:31.424Z,98807.00
2023-04-23T22:02:34.055Z,98793.44
2023-04-23T22:12:37.660Z,98786.91
2023-04-23T22:22:42.190Z,98795.00
2023-04-23T22:32:44.739Z,98776.56
2023-04-23T22:42:47.366Z,98787.38
2023-04-23T22:52:49.843Z,98775.44
2023-04-23T23:02:53.068Z,98757.41
2023-04-23T23:12:55.663Z,98752.31
2023-04-23T23:22:58.268Z,98729.25
2023-04-23T23:33:00.935Z,98712.00
2023-04-23T23:43:03.645Z,98718.63
2023-04-23T23:53:06.290Z,98710.44
